sensor_id;sensor_type;location;lat;lon;timestamp;P1;durP1;ratioP1;P2;durP2;ratioP2
25581;SDS011;13462;50.764;4.332;2024-03-29T00:02:06;8.07;;;1.20;;
25581;SDS011;13462;50.764;4.332;2024-03-29T00:04:31;6.00;;;1.80;;
25581;SDS011;13462;50.764;4.332;2024-03-29T00:06:57;4.10;;;1.15;;
25581;SDS011;13462;50.764;4.332;2024-03-29T00:09:23;5.10;;;1.30;;
25581;SDS011;13462;50.764;4.332;2024-03-29T00:11:48;1.77;;;1.08;;
25581;SDS011;13462;50.764;4.332;2024-03-29T00:14:14;1.83;;;0.80;;
25581;SDS011;13462;50.764;4.332;2024-03-29T00:16:39;5.63;;;1.42;;
25581;SDS011;13462;50.764;4.332;2024-03-29T00:19:05;4.13;;;1.15;;
25581;SDS011;13462;50.764;4.332;2024-03-29T00:21:30;4.20;;;1.05;;
25581;SDS011;13462;50.764;4.332;2024-03-29T00:23:56;1.85;;;1.10;;
25581;SDS011;13462;50.764;4.332;2024-03-29T00:26:22;7.85;;;1.50;;
25581;SDS011;13462;50.764;4.332;2024-03-29T00:28:48;3.10;;;1.13;;
25581;SDS011;13462;50.764;4.332;2024-03-29T00:31:14;3.70;;;1.10;;
25581;SDS011;13462;50.764;4.332;2024-03-29T00:33:40;4.63;;;1.20;;
25581;SDS011;13462;50.764;4.332;2024-03-29T00:36:06;6.47;;;1.42;;
25581;SDS011;13462;50.764;4.332;2024-03-29T00:38:32;4.13;;;1.08;;
25581;SDS011;13462;50.764;4.332;2024-03-29T00:40:57;3.72;;;0.95;;
25581;SDS011;13462;50.764;4.332;2024-03-29T00:43:23;8.65;;;2.38;;
25581;SDS011;13462;50.764;4.332;2024-03-29T00:45:48;4.70;;;0.90;;
25581;SDS011;13462;50.764;4.332;2024-03-29T00:48:14;3.67;;;1.10;;
25581;SDS011;13462;50.764;4.332;2024-03-29T00:50:42;5.25;;;1.05;;
25581;SDS011;13462;50.764;4.332;2024-03-29T00:53:08;7.03;;;1.35;;
25581;SDS011;13462;50.764;4.332;2024-03-29T00:55:34;4.80;;;1.08;;
25581;SDS011;13462;50.764;4.332;2024-03-29T00:57:59;3.17;;;1.02;;
25581;SDS011;13462;50.764;4.332;2024-03-29T01:00:25;4.82;;;1.20;;
25581;SDS011;13462;50.764;4.332;2024-03-29T01:02:50;4.70;;;1.40;;
25581;SDS011;13462;50.764;4.332;2024-03-29T01:05:16;3.47;;;1.30;;
25581;SDS011;13462;50.764;4.332;2024-03-29T01:07:42;2.95;;;0.70;;
25581;SDS011;13462;50.764;4.332;2024-03-29T01:10:08;5.60;;;1.30;;
25581;SDS011;13462;50.764;4.332;2024-03-29T01:12:34;6.70;;;1.13;;
25581;SDS011;13462;50.764;4.332;2024-03-29T01:15:04;4.30;;;2.38;;
25581;SDS011;13462;50.764;4.332;2024-03-29T01:17:31;3.78;;;1.05;;
25581;SDS011;13462;50.764;4.332;2024-03-29T01:19:57;1.02;;;0.93;;
25581;SDS011;13462;50.764;4.332;2024-03-29T01:22:22;1.70;;;0.70;;
25581;SDS011;13462;50.764;4.332;2024-03-29T01:24:48;5.75;;;1.25;;
25581;SDS011;13462;50.764;4.332;2024-03-29T01:27:13;3.13;;;0.80;;
25581;SDS011;13462;50.764;4.332;2024-03-29T01:29:39;3.83;;;1.05;;
25581;SDS011;13462;50.764;4.332;2024-03-29T01:32:05;2.20;;;1.05;;
25581;SDS011;13462;50.764;4.332;2024-03-29T01:34:31;2.88;;;0.77;;
25581;SDS011;13462;50.764;4.332;2024-03-29T01:36:57;2.17;;;0.88;;
25581;SDS011;13462;50.764;4.332;2024-03-29T01:39:22;4.32;;;0.90;;
25581;SDS011;13462;50.764;4.332;2024-03-29T01:41:53;4.53;;;0.93;;
25581;SDS011;13462;50.764;4.332;2024-03-29T01:44:19;2.83;;;0.90;;
25581;SDS011;13462;50.764;4.332;2024-03-29T01:46:45;2.83;;;0.90;;
25581;SDS011;13462;50.764;4.332;2024-03-29T01:49:12;2.00;;;0.82;;
25581;SDS011;13462;50.764;4.332;2024-03-29T01:51:38;1.55;;;0.80;;
25581;SDS011;13462;50.764;4.332;2024-03-29T01:54:08;0.40;;;0.40;;
25581;SDS011;13462;50.764;4.332;2024-03-29T01:56:35;3.17;;;0.75;;
25581;SDS011;13462;50.764;4.332;2024-03-29T01:59:02;2.67;;;0.90;;
25581;SDS011;13462;50.764;4.332;2024-03-29T02:01:29;0.35;;;0.35;;
25581;SDS011;13462;50.764;4.332;2024-03-29T02:03:56;1.10;;;0.60;;
25581;SDS011;13462;50.764;4.332;2024-03-29T02:06:22;1.85;;;0.52;;
25581;SDS011;13462;50.764;4.332;2024-03-29T02:08:49;1.20;;;0.50;;
25581;SDS011;13462;50.764;4.332;2024-03-29T02:11:18;0.40;;;0.40;;
25581;SDS011;13462;50.764;4.332;2024-03-29T02:13:43;4.05;;;0.50;;
25581;SDS011;13462;50.764;4.332;2024-03-29T02:16:09;1.50;;;0.40;;
25581;SDS011;13462;50.764;4.332;2024-03-29T02:18:35;0.35;;;0.35;;
25581;SDS011;13462;50.764;4.332;2024-03-29T02:21:01;1.70;;;0.50;;
25581;SDS011;13462;50.764;4.332;2024-03-29T02:23:26;1.13;;;0.60;;
25581;SDS011;13462;50.764;4.332;2024-03-29T02:25:54;2.55;;;0.70;;
25581;SDS011;13462;50.764;4.332;2024-03-29T02:28:21;0.88;;;0.70;;
25581;SDS011;13462;50.764;4.332;2024-03-29T02:30:48;2.50;;;0.63;;
25581;SDS011;13462;50.764;4.332;2024-03-29T02:33:14;1.42;;;0.60;;
25581;SDS011;13462;50.764;4.332;2024-03-29T02:35:40;3.88;;;1.30;;
25581;SDS011;13462;50.764;4.332;2024-03-29T02:38:05;2.28;;;0.80;;
25581;SDS011;13462;50.764;4.332;2024-03-29T02:40:31;1.60;;;0.70;;
25581;SDS011;13462;50.764;4.332;2024-03-29T02:42:57;2.35;;;0.90;;
25581;SDS011;13462;50.764;4.332;2024-03-29T02:45:22;0.98;;;0.60;;
25581;SDS011;13462;50.764;4.332;2024-03-29T02:47:48;2.05;;;1.13;;
25581;SDS011;13462;50.764;4.332;2024-03-29T02:50:14;4.47;;;0.80;;
25581;SDS011;13462;50.764;4.332;2024-03-29T02:52:40;4.45;;;0.80;;
25581;SDS011;13462;50.764;4.332;2024-03-29T02:55:07;3.90;;;0.80;;
25581;SDS011;13462;50.764;4.332;2024-03-29T02:57:34;2.38;;;0.88;;
25581;SDS011;13462;50.764;4.332;2024-03-29T03:00:00;3.97;;;0.98;;
25581;SDS011;13462;50.764;4.332;2024-03-29T03:02:25;2.22;;;0.82;;
25581;SDS011;13462;50.764;4.332;2024-03-29T03:04:51;2.28;;;1.02;;
25581;SDS011;13462;50.764;4.332;2024-03-29T03:07:16;1.65;;;1.00;;
25581;SDS011;13462;50.764;4.332;2024-03-29T03:10:01;2.88;;;1.17;;
25581;SDS011;13462;50.764;4.332;2024-03-29T03:12:45;2.63;;;1.48;;
25581;SDS011;13462;50.764;4.332;2024-03-29T03:15:11;3.67;;;1.10;;
25581;SDS011;13462;50.764;4.332;2024-03-29T03:17:36;3.00;;;1.20;;
25581;SDS011;13462;50.764;4.332;2024-03-29T03:20:02;1.63;;;0.93;;
25581;SDS011;13462;50.764;4.332;2024-03-29T03:22:31;2.08;;;1.00;;
25581;SDS011;13462;50.764;4.332;2024-03-29T03:24:57;4.90;;;1.42;;
25581;SDS011;13462;50.764;4.332;2024-03-29T03:27:23;2.35;;;1.00;;
25581;SDS011;13462;50.764;4.332;2024-03-29T03:29:48;4.45;;;1.20;;
25581;SDS011;13462;50.764;4.332;2024-03-29T03:32:14;3.60;;;1.10;;
25581;SDS011;13462;50.764;4.332;2024-03-29T03:34:40;3.33;;;1.17;;
25581;SDS011;13462;50.764;4.332;2024-03-29T03:37:05;4.45;;;0.90;;
25581;SDS011;13462;50.764;4.332;2024-03-29T03:39:31;3.67;;;1.40;;
25581;SDS011;13462;50.764;4.332;2024-03-29T03:41:56;1.20;;;0.95;;
25581;SDS011;13462;50.764;4.332;2024-03-29T03:44:22;2.88;;;1.15;;
25581;SDS011;13462;50.764;4.332;2024-03-29T03:46:50;3.70;;;0.90;;
25581;SDS011;13462;50.764;4.332;2024-03-29T03:49:16;4.82;;;1.10;;
25581;SDS011;13462;50.764;4.332;2024-03-29T03:51:42;3.47;;;0.90;;
25581;SDS011;13462;50.764;4.332;2024-03-29T03:54:07;1.70;;;0.75;;
25581;SDS011;13462;50.764;4.332;2024-03-29T03:56:33;3.63;;;1.35;;
25581;SDS011;13462;50.764;4.332;2024-03-29T03:58:58;2.50;;;1.10;;
25581;SDS011;13462;50.764;4.332;2024-03-29T04:01:24;1.73;;;1.10;;
25581;SDS011;13462;50.764;4.332;2024-03-29T04:03:50;2.85;;;0.80;;
25581;SDS011;13462;50.764;4.332;2024-03-29T04:06:15;3.63;;;1.00;;
25581;SDS011;13462;50.764;4.332;2024-03-29T04:08:43;4.57;;;2.55;;
25581;SDS011;13462;50.764;4.332;2024-03-29T04:11:09;4.05;;;0.90;;
25581;SDS011;13462;50.764;4.332;2024-03-29T04:13:35;3.28;;;1.23;;
25581;SDS011;13462;50.764;4.332;2024-03-29T04:16:04;3.63;;;1.00;;
25581;SDS011;13462;50.764;4.332;2024-03-29T04:18:31;1.83;;;0.90;;
25581;SDS011;13462;50.764;4.332;2024-03-29T04:20:57;2.50;;;0.90;;
25581;SDS011;13462;50.764;4.332;2024-03-29T04:23:23;1.90;;;0.80;;
25581;SDS011;13462;50.764;4.332;2024-03-29T04:25:55;3.15;;;1.15;;
25581;SDS011;13462;50.764;4.332;2024-03-29T04:28:22;3.15;;;1.05;;
25581;SDS011;13462;50.764;4.332;2024-03-29T04:30:52;2.35;;;0.80;;
25581;SDS011;13462;50.764;4.332;2024-03-29T04:33:18;1.70;;;0.95;;
25581;SDS011;13462;50.764;4.332;2024-03-29T04:38:23;4.05;;;0.90;;
25581;SDS011;13462;50.764;4.332;2024-03-29T04:40:50;1.88;;;0.95;;
25581;SDS011;13462;50.764;4.332;2024-03-29T04:43:16;4.85;;;1.17;;
25581;SDS011;13462;50.764;4.332;2024-03-29T04:45:45;5.20;;;0.90;;
25581;SDS011;13462;50.764;4.332;2024-03-29T04:48:11;2.95;;;1.20;;
25581;SDS011;13462;50.764;4.332;2024-03-29T04:50:37;2.92;;;0.90;;
25581;SDS011;13462;50.764;4.332;2024-03-29T04:53:03;2.88;;;0.80;;
25581;SDS011;13462;50.764;4.332;2024-03-29T04:55:29;3.63;;;1.10;;
25581;SDS011;13462;50.764;4.332;2024-03-29T04:57:55;2.55;;;0.98;;
25581;SDS011;13462;50.764;4.332;2024-03-29T05:00:20;2.67;;;1.00;;
25581;SDS011;13462;50.764;4.332;2024-03-29T05:02:46;1.95;;;0.90;;
25581;SDS011;13462;50.764;4.332;2024-03-29T05:05:12;3.25;;;0.93;;
25581;SDS011;13462;50.764;4.332;2024-03-29T05:07:37;2.30;;;1.23;;
25581;SDS011;13462;50.764;4.332;2024-03-29T05:10:03;1.27;;;0.93;;
25581;SDS011;13462;50.764;4.332;2024-03-29T05:12:31;1.08;;;0.90;;
25581;SDS011;13462;50.764;4.332;2024-03-29T05:14:57;2.55;;;1.00;;
25581;SDS011;13462;50.764;4.332;2024-03-29T05:17:23;2.30;;;0.95;;
25581;SDS011;13462;50.764;4.332;2024-03-29T05:19:51;4.00;;;1.30;;
25581;SDS011;13462;50.764;4.332;2024-03-29T05:22:20;4.00;;;1.00;;
25581;SDS011;13462;50.764;4.332;2024-03-29T05:24:46;1.73;;;1.10;;
25581;SDS011;13462;50.764;4.332;2024-03-29T05:27:12;3.15;;;1.00;;
25581;SDS011;13462;50.764;4.332;2024-03-29T05:29:38;2.90;;;1.73;;
25581;SDS011;13462;50.764;4.332;2024-03-29T05:32:04;1.00;;;0.90;;
25581;SDS011;13462;50.764;4.332;2024-03-29T05:34:30;2.03;;;0.90;;
25581;SDS011;13462;50.764;4.332;2024-03-29T05:36:56;1.63;;;1.08;;
25581;SDS011;13462;50.764;4.332;2024-03-29T05:39:22;4.05;;;1.10;;
25581;SDS011;13462;50.764;4.332;2024-03-29T05:41:47;6.20;;;2.88;;
25581;SDS011;13462;50.764;4.332;2024-03-29T05:44:13;2.22;;;1.20;;
25581;SDS011;13462;50.764;4.332;2024-03-29T05:46:39;3.38;;;1.20;;
25581;SDS011;13462;50.764;4.332;2024-03-29T05:49:05;2.88;;;1.35;;
25581;SDS011;13462;50.764;4.332;2024-03-29T05:51:31;2.63;;;2.20;;
25581;SDS011;13462;50.764;4.332;2024-03-29T05:53:58;4.55;;;2.45;;
25581;SDS011;13462;50.764;4.332;2024-03-29T05:56:24;3.20;;;2.00;;
25581;SDS011;13462;50.764;4.332;2024-03-29T05:58:50;4.80;;;1.80;;
25581;SDS011;13462;50.764;4.332;2024-03-29T06:01:15;3.35;;;1.70;;
25581;SDS011;13462;50.764;4.332;2024-03-29T06:03:41;4.45;;;1.98;;
25581;SDS011;13462;50.764;4.332;2024-03-29T06:06:06;5.32;;;1.63;;
25581;SDS011;13462;50.764;4.332;2024-03-29T06:08:32;1.63;;;1.25;;
25581;SDS011;13462;50.764;4.332;2024-03-29T06:10:58;3.60;;;1.60;;
25581;SDS011;13462;50.764;4.332;2024-03-29T06:13:24;8.23;;;2.03;;
25581;SDS011;13462;50.764;4.332;2024-03-29T06:16:12;6.00;;;1.58;;
25581;SDS011;13462;50.764;4.332;2024-03-29T06:18:56;4.05;;;1.70;;
25581;SDS011;13462;50.764;4.332;2024-03-29T06:21:22;3.97;;;1.60;;
25581;SDS011;13462;50.764;4.332;2024-03-29T06:23:48;3.75;;;1.67;;
25581;SDS011;13462;50.764;4.332;2024-03-29T06:26:13;3.47;;;2.05;;
25581;SDS011;13462;50.764;4.332;2024-03-29T06:28:39;3.20;;;1.90;;
25581;SDS011;13462;50.764;4.332;2024-03-29T06:31:05;6.47;;;2.40;;
25581;SDS011;13462;50.764;4.332;2024-03-29T06:33:30;8.27;;;2.50;;
25581;SDS011;13462;50.764;4.332;2024-03-29T06:35:56;6.05;;;2.22;;
25581;SDS011;13462;50.764;4.332;2024-03-29T06:38:21;4.95;;;2.28;;
25581;SDS011;13462;50.764;4.332;2024-03-29T06:40:47;3.05;;;2.28;;
25581;SDS011;13462;50.764;4.332;2024-03-29T06:43:13;7.05;;;2.50;;
25581;SDS011;13462;50.764;4.332;2024-03-29T06:45:39;3.40;;;2.30;;
25581;SDS011;13462;50.764;4.332;2024-03-29T06:48:07;6.05;;;2.60;;
25581;SDS011;13462;50.764;4.332;2024-03-29T06:50:33;6.95;;;2.70;;
25581;SDS011;13462;50.764;4.332;2024-03-29T06:52:59;3.92;;;2.65;;
25581;SDS011;13462;50.764;4.332;2024-03-29T06:55:25;6.90;;;2.90;;
25581;SDS011;13462;50.764;4.332;2024-03-29T06:57:51;8.05;;;3.47;;
25581;SDS011;13462;50.764;4.332;2024-03-29T07:00:17;4.78;;;2.47;;
25581;SDS011;13462;50.764;4.332;2024-03-29T07:02:43;9.00;;;3.20;;
25581;SDS011;13462;50.764;4.332;2024-03-29T07:05:09;8.23;;;3.17;;
25581;SDS011;13462;50.764;4.332;2024-03-29T07:07:36;5.20;;;2.20;;
25581;SDS011;13462;50.764;4.332;2024-03-29T07:10:03;5.07;;;2.58;;
25581;SDS011;13462;50.764;4.332;2024-03-29T07:12:28;4.55;;;2.55;;
25581;SDS011;13462;50.764;4.332;2024-03-29T07:14:54;5.30;;;2.58;;
25581;SDS011;13462;50.764;4.332;2024-03-29T07:17:20;5.30;;;3.38;;
25581;SDS011;13462;50.764;4.332;2024-03-29T07:19:45;5.20;;;2.47;;
25581;SDS011;13462;50.764;4.332;2024-03-29T07:22:11;5.13;;;2.60;;
25581;SDS011;13462;50.764;4.332;2024-03-29T07:24:37;6.15;;;2.65;;
25581;SDS011;13462;50.764;4.332;2024-03-29T07:27:03;4.38;;;2.78;;
25581;SDS011;13462;50.764;4.332;2024-03-29T07:29:29;7.88;;;3.13;;
25581;SDS011;13462;50.764;4.332;2024-03-29T07:31:54;3.47;;;2.45;;
25581;SDS011;13462;50.764;4.332;2024-03-29T07:34:20;4.70;;;2.63;;
25581;SDS011;13462;50.764;4.332;2024-03-29T07:36:46;6.80;;;3.13;;
25581;SDS011;13462;50.764;4.332;2024-03-29T07:39:11;9.27;;;2.92;;
25581;SDS011;13462;50.764;4.332;2024-03-29T07:41:37;5.13;;;3.00;;
25581;SDS011;13462;50.764;4.332;2024-03-29T07:44:02;5.90;;;2.85;;
25581;SDS011;13462;50.764;4.332;2024-03-29T07:46:32;9.25;;;3.20;;
25581;SDS011;13462;50.764;4.332;2024-03-29T07:48:59;6.50;;;3.55;;
25581;SDS011;13462;50.764;4.332;2024-03-29T07:51:25;7.65;;;3.42;;
25581;SDS011;13462;50.764;4.332;2024-03-29T07:53:51;8.60;;;3.55;;
25581;SDS011;13462;50.764;4.332;2024-03-29T07:56:17;5.38;;;3.30;;
25581;SDS011;13462;50.764;4.332;2024-03-29T07:58:43;4.15;;;2.85;;
25581;SDS011;13462;50.764;4.332;2024-03-29T08:01:09;6.97;;;3.22;;
25581;SDS011;13462;50.764;4.332;2024-03-29T08:03:35;3.65;;;3.10;;
25581;SDS011;13462;50.764;4.332;2024-03-29T08:06:01;5.35;;;3.20;;
25581;SDS011;13462;50.764;4.332;2024-03-29T08:08:31;5.57;;;3.03;;
25581;SDS011;13462;50.764;4.332;2024-03-29T08:10:57;4.78;;;2.80;;
25581;SDS011;13462;50.764;4.332;2024-03-29T08:13:23;6.55;;;2.67;;
25581;SDS011;13462;50.764;4.332;2024-03-29T08:15:55;6.28;;;2.90;;
25581;SDS011;13462;50.764;4.332;2024-03-29T08:18:25;3.92;;;3.17;;
25581;SDS011;13462;50.764;4.332;2024-03-29T08:20:51;4.20;;;2.90;;
25581;SDS011;13462;50.764;4.332;2024-03-29T08:23:19;7.30;;;3.30;;
25581;SDS011;13462;50.764;4.332;2024-03-29T08:25:44;3.58;;;2.92;;
25581;SDS011;13462;50.764;4.332;2024-03-29T08:28:10;5.13;;;4.25;;
25581;SDS011;13462;50.764;4.332;2024-03-29T08:30:36;4.32;;;2.92;;
25581;SDS011;13462;50.764;4.332;2024-03-29T08:33:02;4.05;;;2.65;;
25581;SDS011;13462;50.764;4.332;2024-03-29T08:35:28;4.05;;;2.83;;
25581;SDS011;13462;50.764;4.332;2024-03-29T08:37:54;8.95;;;3.05;;
25581;SDS011;13462;50.764;4.332;2024-03-29T08:40:20;6.38;;;2.58;;
25581;SDS011;13462;50.764;4.332;2024-03-29T08:42:46;3.72;;;2.78;;
25581;SDS011;13462;50.764;4.332;2024-03-29T08:45:12;2.35;;;2.15;;
25581;SDS011;13462;50.764;4.332;2024-03-29T08:47:38;5.10;;;2.25;;
25581;SDS011;13462;50.764;4.332;2024-03-29T08:50:04;2.83;;;1.88;;
25581;SDS011;13462;50.764;4.332;2024-03-29T08:52:30;4.00;;;2.10;;
25581;SDS011;13462;50.764;4.332;2024-03-29T08:54:56;2.47;;;1.85;;
25581;SDS011;13462;50.764;4.332;2024-03-29T08:57:21;3.05;;;1.67;;
25581;SDS011;13462;50.764;4.332;2024-03-29T08:59:47;3.00;;;1.60;;
25581;SDS011;13462;50.764;4.332;2024-03-29T09:02:12;2.08;;;1.40;;
25581;SDS011;13462;50.764;4.332;2024-03-29T09:04:38;3.65;;;2.65;;
25581;SDS011;13462;50.764;4.332;2024-03-29T09:07:04;4.20;;;1.85;;
25581;SDS011;13462;50.764;4.332;2024-03-29T09:09:31;2.17;;;1.30;;
25581;SDS011;13462;50.764;4.332;2024-03-29T09:11:57;2.00;;;1.20;;
25581;SDS011;13462;50.764;4.332;2024-03-29T09:14:23;5.00;;;1.60;;
25581;SDS011;13462;50.764;4.332;2024-03-29T09:16:49;2.30;;;1.67;;
25581;SDS011;13462;50.764;4.332;2024-03-29T09:19:15;2.38;;;1.17;;
25581;SDS011;13462;50.764;4.332;2024-03-29T09:21:41;3.20;;;1.50;;
25581;SDS011;13462;50.764;4.332;2024-03-29T09:24:07;2.22;;;1.67;;
25581;SDS011;13462;50.764;4.332;2024-03-29T09:26:32;2.35;;;1.40;;
25581;SDS011;13462;50.764;4.332;2024-03-29T09:28:58;2.13;;;1.35;;
25581;SDS011;13462;50.764;4.332;2024-03-29T09:31:24;2.58;;;1.40;;
25581;SDS011;13462;50.764;4.332;2024-03-29T09:33:50;2.60;;;1.42;;
25581;SDS011;13462;50.764;4.332;2024-03-29T09:36:19;2.40;;;1.27;;
25581;SDS011;13462;50.764;4.332;2024-03-29T09:38:46;1.70;;;1.30;;
25581;SDS011;13462;50.764;4.332;2024-03-29T09:41:16;2.63;;;1.20;;
25581;SDS011;13462;50.764;4.332;2024-03-29T09:43:44;1.35;;;1.25;;
25581;SDS011;13462;50.764;4.332;2024-03-29T09:46:11;2.25;;;1.30;;
25581;SDS011;13462;50.764;4.332;2024-03-29T09:48:40;4.15;;;1.50;;
25581;SDS011;13462;50.764;4.332;2024-03-29T09:51:08;2.92;;;1.55;;
25581;SDS011;13462;50.764;4.332;2024-03-29T09:53:34;1.55;;;1.45;;
25581;SDS011;13462;50.764;4.332;2024-03-29T09:56:05;2.10;;;1.38;;
25581;SDS011;13462;50.764;4.332;2024-03-29T09:58:34;2.78;;;1.40;;
25581;SDS011;13462;50.764;4.332;2024-03-29T10:01:02;2.63;;;1.33;;
25581;SDS011;13462;50.764;4.332;2024-03-29T10:03:29;1.92;;;1.40;;
25581;SDS011;13462;50.764;4.332;2024-03-29T10:05:56;1.92;;;1.45;;
25581;SDS011;13462;50.764;4.332;2024-03-29T10:08:23;1.50;;;1.40;;
25581;SDS011;13462;50.764;4.332;2024-03-29T10:10:54;2.83;;;1.73;;
25581;SDS011;13462;50.764;4.332;2024-03-29T10:13:23;1.98;;;1.73;;
25581;SDS011;13462;50.764;4.332;2024-03-29T10:15:53;1.90;;;1.67;;
25581;SDS011;13462;50.764;4.332;2024-03-29T10:18:22;3.58;;;1.70;;
25581;SDS011;13462;50.764;4.332;2024-03-29T10:21:03;2.00;;;1.35;;
25581;SDS011;13462;50.764;4.332;2024-03-29T10:23:30;5.25;;;2.17;;
25581;SDS011;13462;50.764;4.332;2024-03-29T10:25:57;3.50;;;1.90;;
25581;SDS011;13462;50.764;4.332;2024-03-29T10:28:23;2.25;;;1.67;;
25581;SDS011;13462;50.764;4.332;2024-03-29T10:30:52;2.03;;;1.40;;
25581;SDS011;13462;50.764;4.332;2024-03-29T10:33:20;2.53;;;1.70;;
25581;SDS011;13462;50.764;4.332;2024-03-29T10:35:46;2.25;;;2.05;;
25581;SDS011;13462;50.764;4.332;2024-03-29T10:38:11;2.92;;;1.55;;
25581;SDS011;13462;50.764;4.332;2024-03-29T10:40:38;2.10;;;1.70;;
25581;SDS011;13462;50.764;4.332;2024-03-29T10:43:10;4.32;;;2.28;;
25581;SDS011;13462;50.764;4.332;2024-03-29T10:45:41;3.50;;;2.20;;
25581;SDS011;13462;50.764;4.332;2024-03-29T10:48:11;3.00;;;2.08;;
25581;SDS011;13462;50.764;4.332;2024-03-29T10:50:40;3.80;;;1.77;;
25581;SDS011;13462;50.764;4.332;2024-03-29T10:53:07;1.80;;;1.70;;
25581;SDS011;13462;50.764;4.332;2024-03-29T10:55:35;1.77;;;1.67;;
25581;SDS011;13462;50.764;4.332;2024-03-29T10:58:02;3.28;;;2.15;;
25581;SDS011;13462;50.764;4.332;2024-03-29T11:00:29;2.17;;;1.80;;
25581;SDS011;13462;50.764;4.332;2024-03-29T11:05:48;2.03;;;1.92;;
25581;SDS011;13462;50.764;4.332;2024-03-29T11:08:24;1.60;;;1.50;;
25581;SDS011;13462;50.764;4.332;2024-03-29T11:10:56;2.70;;;1.58;;
25581;SDS011;13462;50.764;4.332;2024-03-29T11:13:27;1.52;;;1.25;;
25581;SDS011;13462;50.764;4.332;2024-03-29T11:16:09;1.15;;;1.10;;
25581;SDS011;13462;50.764;4.332;2024-03-29T11:18:36;1.15;;;0.90;;
25581;SDS011;13462;50.764;4.332;2024-03-29T11:21:03;4.53;;;1.67;;
25581;SDS011;13462;50.764;4.332;2024-03-29T11:23:33;1.30;;;1.20;;
25581;SDS011;13462;50.764;4.332;2024-03-29T11:25:59;2.83;;;1.23;;
25581;SDS011;13462;50.764;4.332;2024-03-29T11:28:34;2.25;;;1.20;;
25581;SDS011;13462;50.764;4.332;2024-03-29T11:31:01;2.30;;;1.45;;
25581;SDS011;13462;50.764;4.332;2024-03-29T11:33:31;1.20;;;0.90;;
25581;SDS011;13462;50.764;4.332;2024-03-29T11:35:58;1.58;;;0.90;;
25581;SDS011;13462;50.764;4.332;2024-03-29T11:38:31;1.23;;;0.80;;
25581;SDS011;13462;50.764;4.332;2024-03-29T11:41:02;1.42;;;1.17;;
25581;SDS011;13462;50.764;4.332;2024-03-29T11:43:32;2.75;;;1.10;;
25581;SDS011;13462;50.764;4.332;2024-03-29T11:45:59;2.67;;;1.33;;
25581;SDS011;13462;50.764;4.332;2024-03-29T11:48:26;1.30;;;1.20;;
25581;SDS011;13462;50.764;4.332;2024-03-29T11:50:53;3.17;;;1.08;;
25581;SDS011;13462;50.764;4.332;2024-03-29T11:53:19;1.50;;;1.10;;
25581;SDS011;13462;50.764;4.332;2024-03-29T11:55:45;2.05;;;1.00;;
25581;SDS011;13462;50.764;4.332;2024-03-29T11:58:12;2.17;;;1.33;;
25581;SDS011;13462;50.764;4.332;2024-03-29T12:00:38;1.48;;;1.38;;
25581;SDS011;13462;50.764;4.332;2024-03-29T12:03:05;1.52;;;1.42;;
25581;SDS011;13462;50.764;4.332;2024-03-29T12:05:31;2.50;;;1.90;;
25581;SDS011;13462;50.764;4.332;2024-03-29T12:07:58;4.00;;;2.45;;
25581;SDS011;13462;50.764;4.332;2024-03-29T12:10:27;3.08;;;2.78;;
25581;SDS011;13462;50.764;4.332;2024-03-29T12:12:56;2.53;;;2.15;;
25581;SDS011;13462;50.764;4.332;2024-03-29T12:15:27;2.00;;;1.80;;
25581;SDS011;13462;50.764;4.332;2024-03-29T12:17:57;2.08;;;1.92;;
25581;SDS011;13462;50.764;4.332;2024-03-29T12:20:24;3.43;;;2.30;;
25581;SDS011;13462;50.764;4.332;2024-03-29T12:22:49;3.58;;;2.08;;
25581;SDS011;13462;50.764;4.332;2024-03-29T12:25:15;2.67;;;1.58;;
25581;SDS011;13462;50.764;4.332;2024-03-29T12:27:42;1.73;;;1.27;;
25581;SDS011;13462;50.764;4.332;2024-03-29T12:30:08;2.60;;;1.27;;
25581;SDS011;13462;50.764;4.332;2024-03-29T12:32:34;1.80;;;1.23;;
25581;SDS011;13462;50.764;4.332;2024-03-29T12:35:10;1.67;;;1.25;;
25581;SDS011;13462;50.764;4.332;2024-03-29T12:37:36;0.90;;;0.90;;
25581;SDS011;13462;50.764;4.332;2024-03-29T12:40:06;0.80;;;0.80;;
25581;SDS011;13462;50.764;4.332;2024-03-29T12:42:40;2.65;;;0.70;;
25581;SDS011;13462;50.764;4.332;2024-03-29T12:45:06;2.97;;;1.13;;
25581;SDS011;13462;50.764;4.332;2024-03-29T12:47:36;1.73;;;1.27;;
25581;SDS011;13462;50.764;4.332;2024-03-29T12:50:02;3.58;;;1.40;;
25581;SDS011;13462;50.764;4.332;2024-03-29T12:52:39;4.70;;;1.15;;
25581;SDS011;13462;50.764;4.332;2024-03-29T12:55:06;3.30;;;0.95;;
25581;SDS011;13462;50.764;4.332;2024-03-29T12:57:33;1.00;;;0.90;;
25581;SDS011;13462;50.764;4.332;2024-03-29T13:00:07;1.70;;;1.00;;
25581;SDS011;13462;50.764;4.332;2024-03-29T13:02:37;2.30;;;1.40;;
25581;SDS011;13462;50.764;4.332;2024-03-29T13:05:03;1.77;;;1.27;;
25581;SDS011;13462;50.764;4.332;2024-03-29T13:07:29;1.45;;;1.23;;
25581;SDS011;13462;50.764;4.332;2024-03-29T13:10:01;2.38;;;0.93;;
25581;SDS011;13462;50.764;4.332;2024-03-29T13:12:30;1.52;;;1.10;;
25581;SDS011;13462;50.764;4.332;2024-03-29T13:14:56;2.47;;;1.13;;
25581;SDS011;13462;50.764;4.332;2024-03-29T13:17:27;3.13;;;1.30;;
25581;SDS011;13462;50.764;4.332;2024-03-29T13:19:53;1.30;;;1.10;;
25581;SDS011;13462;50.764;4.332;2024-03-29T13:22:18;3.33;;;1.95;;
25581;SDS011;13462;50.764;4.332;2024-03-29T13:24:44;4.50;;;2.00;;
25581;SDS011;13462;50.764;4.332;2024-03-29T13:27:09;4.40;;;2.22;;
25581;SDS011;13462;50.764;4.332;2024-03-29T13:29:36;2.63;;;1.90;;
25581;SDS011;13462;50.764;4.332;2024-03-29T13:32:02;3.95;;;2.22;;
25581;SDS011;13462;50.764;4.332;2024-03-29T13:34:28;2.35;;;1.85;;
25581;SDS011;13462;50.764;4.332;2024-03-29T13:36:53;2.90;;;1.40;;
25581;SDS011;13462;50.764;4.332;2024-03-29T13:39:20;1.50;;;0.98;;
25581;SDS011;13462;50.764;4.332;2024-03-29T13:41:48;2.03;;;0.80;;
25581;SDS011;13462;50.764;4.332;2024-03-29T13:44:14;3.83;;;1.27;;
25581;SDS011;13462;50.764;4.332;2024-03-29T13:46:42;4.13;;;1.08;;
25581;SDS011;13462;50.764;4.332;2024-03-29T13:49:08;2.45;;;0.82;;
25581;SDS011;13462;50.764;4.332;2024-03-29T13:51:34;2.88;;;0.75;;
25581;SDS011;13462;50.764;4.332;2024-03-29T13:53:59;4.57;;;1.40;;
25581;SDS011;13462;50.764;4.332;2024-03-29T13:56:25;2.67;;;0.85;;
25581;SDS011;13462;50.764;4.332;2024-03-29T13:58:51;2.30;;;1.50;;
25581;SDS011;13462;50.764;4.332;2024-03-29T14:01:17;1.67;;;1.38;;
25581;SDS011;13462;50.764;4.332;2024-03-29T14:03:42;3.53;;;1.85;;
25581;SDS011;13462;50.764;4.332;2024-03-29T14:06:08;3.20;;;2.00;;
25581;SDS011;13462;50.764;4.332;2024-03-29T14:08:35;2.50;;;1.40;;
25581;SDS011;13462;50.764;4.332;2024-03-29T14:11:01;3.20;;;1.60;;
25581;SDS011;13462;50.764;4.332;2024-03-29T14:13:26;6.75;;;1.98;;
25581;SDS011;13462;50.764;4.332;2024-03-29T14:15:52;4.88;;;2.15;;
25581;SDS011;13462;50.764;4.332;2024-03-29T14:18:19;3.55;;;1.80;;
25581;SDS011;13462;50.764;4.332;2024-03-29T14:20:44;3.10;;;2.00;;
25581;SDS011;13462;50.764;4.332;2024-03-29T14:23:10;4.10;;;2.40;;
25581;SDS011;13462;50.764;4.332;2024-03-29T14:25:39;1.67;;;1.40;;
25581;SDS011;13462;50.764;4.332;2024-03-29T14:28:05;1.80;;;1.48;;
25581;SDS011;13462;50.764;4.332;2024-03-29T14:30:31;4.72;;;1.60;;
25581;SDS011;13462;50.764;4.332;2024-03-29T14:32:57;2.20;;;1.50;;
25581;SDS011;13462;50.764;4.332;2024-03-29T14:35:22;3.45;;;1.67;;
25581;SDS011;13462;50.764;4.332;2024-03-29T14:37:49;2.67;;;1.80;;
25581;SDS011;13462;50.764;4.332;2024-03-29T14:40:15;3.17;;;1.30;;
25581;SDS011;13462;50.764;4.332;2024-03-29T14:42:41;1.10;;;1.05;;
25581;SDS011;13462;50.764;4.332;2024-03-29T14:45:07;3.50;;;1.08;;
25581;SDS011;13462;50.764;4.332;2024-03-29T14:47:36;5.93;;;1.60;;
25581;SDS011;13462;50.764;4.332;2024-03-29T14:50:03;1.27;;;1.17;;
25581;SDS011;13462;50.764;4.332;2024-03-29T14:52:30;6.07;;;2.20;;